Time;durP1;ratioP1;P1;durP2;ratioP2;P2;SDS_P1;SDS_P2;PMS_P1;PMS_P2;Temp;Humidity;BMP_temperature;BMP_pressure;BME280_temperature;BME280_humidity;BME280_pressure;Samples;Min_cycle;Max_cycle;Signal;HPM_P1;HPM_P2
2021/07/16 00:02:49;;;;;;;;;;;18.10;99.90;;;;;;6323155;28;20444;-68
2021/07/16 00:05:51;;;;;;;;;;;18.10;99.90;;;;;;6300107;28;20379;-68
2021/07/16 00:08:52;;;;;;;;;;;18.10;99.90;;;;;;6305112;28;19928;-69
2021/07/16 00:11:54;;;;;;;;;;;18.10;99.90;;;;;;6302197;28;19924;-69
2021/07/16 00:14:56;;;;;;;;;;;18.10;99.90;;;;;;6295173;28;20360;-69
2021/07/16 00:17:58;;;;;;;;;;;18.10;99.90;;;;;;6299275;28;19939;-69
2021/07/16 00:21:01;;;;;;;;;;;18.10;99.90;;;;;;6303510;28;19928;-69
2021/07/16 00:24:03;;;;;;;;;;;18.10;99.90;;;;;;6302241;28;20287;-69
2021/07/16 00:27:05;;;;;;;;;;;18.10;99.90;;;;;;6296204;28;19931;-69
2021/07/16 00:30:08;;;;;;;;;;;18.10;99.90;;;;;;6299871;28;19924;-69
2021/07/16 00:33:09;;;;;;;;;;;18.10;99.90;;;;;;6299019;28;19925;-69
2021/07/16 00:36:11;;;;;;;;;;;18.10;99.90;;;;;;6297482;28;19932;-69
2021/07/16 00:39:12;;;;;;;;;;;18.10;99.90;;;;;;6295828;28;19978;-69
2021/07/16 00:42:14;;;;;;;;;;;18.10;99.90;;;;;;6292891;28;20358;-69
2021/07/16 00:45:16;;;;;;;;;;;18.10;99.90;;;;;;6297504;28;19932;-68
2021/07/16 00:48:18;;;;;;;;;;;18.10;99.90;;;;;;6304635;28;20419;-68
2021/07/16 00:51:19;;;;;;;;;;;18.00;99.90;;;;;;6304606;28;19928;-69
2021/07/16 00:54:21;;;;;;;;;;;18.10;99.90;;;;;;6305399;28;19924;-68
2021/07/16 00:57:23;;;;;;;;;;;18.00;99.90;;;;;;6305037;28;19931;-68
2021/07/16 01:00:25;;;;;;;;;;;18.00;99.90;;;;;;6302071;28;19931;-68
2021/07/16 01:03:26;;;;;;;;;;;18.00;99.90;;;;;;6301677;28;19972;-68
2021/07/16 01:06:28;;;;;;;;;;;17.90;99.90;;;;;;6305691;28;19968;-68
2021/07/16 01:09:30;;;;;;;;;;;17.90;99.90;;;;;;6303735;28;20054;-69
2021/07/16 01:12:32;;;;;;;;;;;17.90;99.90;;;;;;6300591;28;19925;-68
2021/07/16 01:15:34;;;;;;;;;;;17.90;99.90;;;;;;6303197;28;19924;-68
2021/07/16 01:18:35;;;;;;;;;;;17.80;99.90;;;;;;6307405;28;20464;-68
2021/07/16 01:21:38;;;;;;;;;;;17.80;99.90;;;;;;6306410;28;19947;-68
2021/07/16 01:24:39;;;;;;;;;;;17.80;99.90;;;;;;6302094;28;19931;-68
2021/07/16 01:27:43;;;;;;;;;;;17.80;99.90;;;;;;6294777;28;20287;-68
2021/07/16 01:30:45;;;;;;;;;;;17.70;99.90;;;;;;6305444;28;19931;-68
2021/07/16 01:33:47;;;;;;;;;;;17.70;99.90;;;;;;6303051;28;19936;-68
2021/07/16 01:36:49;;;;;;;;;;;17.70;99.90;;;;;;6309915;28;19932;-68
2021/07/16 01:39:50;;;;;;;;;;;17.70;99.90;;;;;;6300493;28;20350;-68
2021/07/16 01:42:56;;;;;;;;;;;17.70;99.90;;;;;;6300188;28;19931;-68
2021/07/16 01:45:58;;;;;;;;;;;17.70;99.90;;;;;;6295855;28;20407;-68
2021/07/16 01:49:00;;;;;;;;;;;17.70;99.90;;;;;;6301580;28;19924;-68
2021/07/16 01:52:02;;;;;;;;;;;17.70;99.90;;;;;;6298459;28;20363;-68
2021/07/16 01:55:04;;;;;;;;;;;17.70;99.90;;;;;;6309291;28;20054;-68
2021/07/16 01:58:08;;;;;;;;;;;17.70;99.90;;;;;;6303394;28;19925;-68
2021/07/16 02:01:14;;;;;;;;;;;17.70;99.90;;;;;;6303297;28;19925;-68
2021/07/16 02:04:16;;;;;;;;;;;17.60;99.90;;;;;;6298131;28;19935;-68
2021/07/16 02:07:17;;;;;;;;;;;17.60;99.90;;;;;;6295649;28;20397;-68
2021/07/16 02:10:20;;;;;;;;;;;17.60;99.90;;;;;;6297672;28;19924;-68
2021/07/16 02:13:25;;;;;;;;;;;17.60;99.90;;;;;;6301251;28;20360;-68
2021/07/16 02:16:27;;;;;;;;;;;17.60;99.90;;;;;;6298888;28;19974;-68
2021/07/16 02:19:33;;;;;;;;;;;17.60;99.90;;;;;;6297349;28;19970;-68
2021/07/16 02:22:34;;;;;;;;;;;17.60;99.90;;;;;;6303685;28;19928;-68
2021/07/16 02:25:36;;;;;;;;;;;17.60;99.90;;;;;;6298934;28;20287;-68
2021/07/16 02:28:38;;;;;;;;;;;17.50;99.90;;;;;;6296132;28;20019;-68
2021/07/16 02:31:40;;;;;;;;;;;17.50;99.90;;;;;;6297639;28;20313;-68
2021/07/16 02:34:42;;;;;;;;;;;17.50;99.90;;;;;;6303752;28;19924;-68
2021/07/16 02:37:43;;;;;;;;;;;17.50;99.90;;;;;;6299705;28;19928;-68
2021/07/16 02:40:45;;;;;;;;;;;17.50;99.90;;;;;;6294821;28;19935;-68
2021/07/16 02:43:47;;;;;;;;;;;17.50;99.90;;;;;;6297517;28;19924;-68
2021/07/16 02:46:48;;;;;;;;;;;17.50;99.90;;;;;;6303122;28;20023;-68
2021/07/16 02:49:50;;;;;;;;;;;17.40;99.90;;;;;;6309725;28;19943;-68
2021/07/16 02:52:52;;;;;;;;;;;17.40;99.90;;;;;;6308451;28;20383;-68
2021/07/16 02:55:54;;;;;;;;;;;17.40;99.90;;;;;;6298657;28;19925;-68
2021/07/16 02:58:55;;;;;;;;;;;17.40;99.90;;;;;;6301622;28;19931;-68
2021/07/16 03:01:57;;;;;;;;;;;17.40;99.90;;;;;;6304567;28;19935;-68
2021/07/16 03:05:00;;;;;;;;;;;17.40;99.90;;;;;;6305186;28;19928;-68
2021/07/16 03:08:03;;;;;;;;;;;17.40;99.90;;;;;;6302275;28;19932;-68
2021/07/16 03:11:04;;;;;;;;;;;17.40;99.90;;;;;;6303666;28;20348;-68
2021/07/16 03:14:06;;;;;;;;;;;17.30;99.90;;;;;;6302122;28;19929;-68
2021/07/16 03:17:08;;;;;;;;;;;17.30;99.90;;;;;;6302153;28;19935;-68
2021/07/16 03:20:11;;;;;;;;;;;17.30;99.90;;;;;;6306250;28;19924;-68
2021/07/16 03:23:14;;;;;;;;;;;17.30;99.90;;;;;;6308249;28;19958;-68
2021/07/16 03:26:16;;;;;;;;;;;17.30;99.90;;;;;;6300597;28;19924;-68
2021/07/16 03:29:17;;;;;;;;;;;17.30;99.90;;;;;;6296974;28;19931;-68
2021/07/16 03:32:19;;;;;;;;;;;17.30;99.90;;;;;;6302435;28;19933;-68
2021/07/16 03:35:21;;;;;;;;;;;17.30;99.90;;;;;;6298802;28;19924;-68
2021/07/16 03:38:22;;;;;;;;;;;17.30;99.90;;;;;;6305845;28;20082;-68
2021/07/16 03:41:24;;;;;;;;;;;17.30;99.90;;;;;;6301492;28;19931;-68
2021/07/16 03:44:26;;;;;;;;;;;17.30;99.90;;;;;;6294293;28;20253;-68
2021/07/16 03:47:41;;;;;;;;;;;17.30;99.90;;;;;;6300250;28;20071;-68
2021/07/16 03:50:42;;;;;;;;;;;17.30;99.90;;;;;;6298706;28;20322;-68
2021/07/16 03:53:44;;;;;;;;;;;17.30;99.90;;;;;;6303942;28;20367;-68
2021/07/16 03:56:48;;;;;;;;;;;17.30;99.90;;;;;;6303253;28;20433;-68
2021/07/16 03:59:50;;;;;;;;;;;17.30;99.90;;;;;;6303805;28;20356;-68
2021/07/16 04:02:52;;;;;;;;;;;17.30;99.90;;;;;;6305465;28;19985;-68
2021/07/16 04:05:55;;;;;;;;;;;17.30;99.90;;;;;;6281728;28;20406;-68
2021/07/16 04:09:10;;;;;;;;;;;17.20;99.90;;;;;;6323191;28;20291;-68
2021/07/16 04:12:13;;;;;;;;;;;17.20;99.90;;;;;;6305193;28;19932;-68
2021/07/16 04:15:15;;;;;;;;;;;17.20;99.90;;;;;;6332267;28;20457;-68
2021/07/16 04:18:16;;;;;;;;;;;17.20;99.90;;;;;;6326404;28;19928;-68
2021/07/16 04:21:18;;;;;;;;;;;17.20;99.90;;;;;;6325712;28;19928;-68
2021/07/16 04:24:20;;;;;;;;;;;17.10;99.90;;;;;;6329683;28;20374;-68
2021/07/16 04:27:21;;;;;;;;;;;17.10;99.90;;;;;;6328208;28;19931;-69
2021/07/16 04:30:23;;;;;;;;;;;17.10;99.90;;;;;;6335014;28;19932;-69
2021/07/16 04:33:25;;;;;;;;;;;17.10;99.90;;;;;;6336184;28;19931;-69
2021/07/16 04:36:27;;;;;;;;;;;17.10;99.90;;;;;;6334684;28;19923;-68
2021/07/16 04:39:29;;;;;;;;;;;17.10;99.90;;;;;;6334189;28;20303;-69
2021/07/16 04:42:31;;;;;;;;;;;17.10;99.90;;;;;;6332659;28;19928;-68
2021/07/16 04:45:37;;;;;;;;;;;17.10;99.90;;;;;;6342046;28;19927;-69
2021/07/16 04:48:38;;;;;;;;;;;17.10;99.90;;;;;;6311920;28;20390;-68
2021/07/16 04:51:40;;;;;;;;;;;17.10;99.90;;;;;;6339804;28;19932;-68
2021/07/16 04:54:42;;;;;;;;;;;17.00;99.90;;;;;;6319968;28;19924;-69
2021/07/16 04:57:43;;;;;;;;;;;17.00;99.90;;;;;;6318865;28;20031;-69
2021/07/16 05:00:45;;;;;;;;;;;17.10;99.90;;;;;;6308144;28;19936;-68
2021/07/16 05:03:48;;;;;;;;;;;17.10;99.90;;;;;;6336031;28;19931;-68
2021/07/16 05:06:49;;;;;;;;;;;17.10;99.90;;;;;;6310055;28;20297;-68
2021/07/16 05:09:51;;;;;;;;;;;17.10;99.90;;;;;;6328857;28;20394;-69
2021/07/16 05:12:52;;;;;;;;;;;17.10;99.90;;;;;;6341417;28;19924;-68
2021/07/16 05:15:54;;;;;;;;;;;17.00;99.90;;;;;;6314539;28;20363;-68
2021/07/16 05:18:56;;;;;;;;;;;17.10;99.90;;;;;;6312326;28;20413;-69
2021/07/16 05:21:57;;;;;;;;;;;17.10;99.90;;;;;;6309272;28;19932;-69
2021/07/16 05:25:00;;;;;;;;;;;17.10;99.90;;;;;;6313248;28;19932;-68
2021/07/16 05:28:02;;;;;;;;;;;17.10;99.90;;;;;;6313663;28;20309;-68
2021/07/16 05:31:04;;;;;;;;;;;17.10;99.90;;;;;;6324848;28;19931;-68
2021/07/16 05:34:06;;;;;;;;;;;17.10;99.90;;;;;;6338111;28;19930;-68
2021/07/16 05:37:07;;;;;;;;;;;17.10;99.90;;;;;;6338244;28;19939;-68
2021/07/16 05:40:09;;;;;;;;;;;17.10;99.90;;;;;;6327490;28;20352;-68
2021/07/16 05:43:11;;;;;;;;;;;17.20;99.90;;;;;;6334523;28;20379;-68
2021/07/16 05:46:13;;;;;;;;;;;17.20;99.90;;;;;;6308607;28;19928;-69
2021/07/16 05:49:15;;;;;;;;;;;17.20;99.90;;;;;;6330586;28;19924;-68
2021/07/16 05:52:16;;;;;;;;;;;17.20;99.90;;;;;;6335055;28;20289;-68
2021/07/16 05:55:18;;;;;;;;;;;17.20;99.90;;;;;;6329765;28;19923;-68
2021/07/16 05:58:20;;;;;;;;;;;17.20;99.90;;;;;;6319046;28;19928;-68
2021/07/16 06:01:21;;;;;;;;;;;17.20;99.90;;;;;;6341291;28;19923;-68
2021/07/16 06:04:23;;;;;;;;;;;17.20;99.90;;;;;;6336547;28;19930;-69
2021/07/16 06:07:25;;;;;;;;;;;17.20;99.90;;;;;;6332616;28;20371;-68
2021/07/16 06:10:27;;;;;;;;;;;17.20;99.90;;;;;;6321123;28;19939;-68
2021/07/16 06:13:29;;;;;;;;;;;17.20;99.90;;;;;;6317696;28;19923;-69
2021/07/16 06:16:31;;;;;;;;;;;17.20;99.90;;;;;;6314419;28;19971;-68
2021/07/16 06:19:33;;;;;;;;;;;17.20;99.90;;;;;;6344183;28;20044;-68
2021/07/16 06:22:35;;;;;;;;;;;17.20;99.90;;;;;;6332108;28;19924;-68
2021/07/16 06:25:36;;;;;;;;;;;17.20;99.90;;;;;;6311273;28;19947;-68
2021/07/16 06:28:38;;;;;;;;;;;17.30;99.90;;;;;;6301508;28;19932;-68
2021/07/16 06:31:40;;;;;;;;;;;17.30;99.90;;;;;;6308935;28;19939;-68
2021/07/16 06:34:41;;;;;;;;;;;17.30;99.90;;;;;;6328175;28;19932;-68
2021/07/16 06:37:43;;;;;;;;;;;17.30;99.90;;;;;;6324073;28;20256;-68
2021/07/16 06:40:44;;;;;;;;;;;17.30;99.90;;;;;;6337771;28;19969;-68
2021/07/16 06:43:46;;;;;;;;;;;17.20;99.90;;;;;;6330461;28;19936;-68
2021/07/16 06:46:48;;;;;;;;;;;17.20;99.90;;;;;;6322214;28;20002;-68
2021/07/16 06:49:49;;;;;;;;;;;17.20;99.90;;;;;;6342215;28;19943;-68
2021/07/16 06:52:51;;;;;;;;;;;17.20;99.90;;;;;;6342905;28;19924;-68
2021/07/16 06:55:53;;;;;;;;;;;17.30;99.90;;;;;;6312961;28;19924;-68
2021/07/16 06:58:54;;;;;;;;;;;17.30;99.90;;;;;;6335186;28;20154;-68
2021/07/16 07:01:56;;;;;;;;;;;17.30;99.90;;;;;;6338648;28;19942;-68
2021/07/16 07:04:58;;;;;;;;;;;17.30;99.90;;;;;;6333544;28;19924;-68
2021/07/16 07:08:00;;;;;;;;;;;17.30;99.90;;;;;;6327029;28;19989;-68
2021/07/16 07:11:02;;;;;;;;;;;17.30;99.90;;;;;;6327872;28;19932;-68
2021/07/16 07:14:05;;;;;;;;;;;17.40;99.90;;;;;;6330154;28;19930;-68
2021/07/16 07:17:06;;;;;;;;;;;17.40;99.90;;;;;;6312725;28;19924;-68
2021/07/16 07:20:11;;;;;;;;;;;17.40;99.90;;;;;;6309353;28;21330;-68
2021/07/16 07:23:12;;;;;;;;;;;17.40;99.90;;;;;;6317540;28;19934;-68
2021/07/16 07:26:14;;;;;;;;;;;17.40;99.90;;;;;;6326643;28;19930;-68
2021/07/16 07:29:15;;;;;;;;;;;17.40;99.90;;;;;;6319061;28;19928;-68
2021/07/16 07:32:19;;;;;;;;;;;17.40;99.90;;;;;;6315792;28;19939;-68
2021/07/16 07:35:21;;;;;;;;;;;17.40;99.90;;;;;;6313083;28;20398;-68
2021/07/16 07:38:23;;;;;;;;;;;17.40;99.90;;;;;;6312150;28;19979;-68
2021/07/16 07:41:25;;;;;;;;;;;17.40;99.90;;;;;;6315026;28;20310;-68
2021/07/16 07:44:27;;;;;;;;;;;17.40;99.90;;;;;;6317155;28;19924;-68
2021/07/16 07:47:32;;;;;;;;;;;17.40;99.90;;;;;;6310506;28;20279;-68
2021/07/16 07:50:36;;;;;;;;;;;17.40;99.90;;;;;;6316909;28;19924;-68
2021/07/16 07:53:37;;;;;;;;;;;17.40;99.90;;;;;;6316106;28;20390;-68
2021/07/16 07:56:39;;;;;;;;;;;17.50;99.90;;;;;;6313121;28;19939;-68
2021/07/16 07:59:43;;;;;;;;;;;17.50;99.90;;;;;;6304425;28;19932;-68
2021/07/16 08:02:44;;;;;;;;;;;17.50;99.90;;;;;;6321509;28;19935;-69
2021/07/16 08:05:46;;;;;;;;;;;17.50;99.90;;;;;;6320249;28;19928;-68
2021/07/16 08:08:48;;;;;;;;;;;17.50;99.90;;;;;;6321805;28;20000;-68
2021/07/16 08:11:49;;;;;;;;;;;17.50;99.90;;;;;;6305692;28;19937;-68
2021/07/16 08:14:51;;;;;;;;;;;17.50;99.90;;;;;;6317325;28;20390;-68
2021/07/16 08:17:53;;;;;;;;;;;17.50;99.90;;;;;;6303740;28;19924;-68
2021/07/16 08:20:55;;;;;;;;;;;17.50;99.90;;;;;;6322977;28;20018;-68
2021/07/16 08:23:57;;;;;;;;;;;17.50;99.90;;;;;;6325283;28;20007;-68
2021/07/16 08:26:58;;;;;;;;;;;17.50;99.90;;;;;;6302340;28;19932;-68
2021/07/16 08:30:01;;;;;;;;;;;17.50;99.90;;;;;;6323059;28;19925;-68
2021/07/16 08:33:06;;;;;;;;;;;17.50;99.90;;;;;;6319194;28;20011;-68
2021/07/16 08:36:07;;;;;;;;;;;17.50;99.90;;;;;;6317953;28;20035;-68
2021/07/16 08:39:09;;;;;;;;;;;17.50;99.90;;;;;;6321578;28;19935;-68
2021/07/16 08:42:13;;;;;;;;;;;17.60;99.90;;;;;;6320533;28;19932;-68
2021/07/16 08:45:15;;;;;;;;;;;17.60;99.90;;;;;;6319905;28;19924;-68
2021/07/16 08:48:16;;;;;;;;;;;17.60;99.90;;;;;;6317877;28;20057;-68
2021/07/16 08:51:19;;;;;;;;;;;17.60;99.90;;;;;;6319230;28;20267;-68
2021/07/16 08:54:21;;;;;;;;;;;17.60;99.90;;;;;;6321818;28;19938;-68
2021/07/16 08:57:25;;;;;;;;;;;17.60;99.90;;;;;;6318944;28;20408;-68
2021/07/16 09:00:27;;;;;;;;;;;17.70;99.90;;;;;;6322810;28;19929;-68
2021/07/16 09:03:29;;;;;;;;;;;17.70;99.90;;;;;;6301924;28;20059;-68
2021/07/16 09:06:47;;;;;;;;;;;17.80;99.90;;;;;;6317151;28;20418;-68
2021/07/16 09:09:48;;;;;;;;;;;17.80;99.90;;;;;;6321169;28;19928;-68
2021/07/16 09:12:56;;;;;;;;;;;17.80;99.90;;;;;;6305436;28;19924;-67
2021/07/16 09:16:01;;;;;;;;;;;17.80;99.90;;;;;;6319291;28;20058;-68
2021/07/16 09:19:03;;;;;;;;;;;17.80;99.90;;;;;;6316577;28;19964;-68
2021/07/16 09:22:12;;;;;;;;;;;17.70;99.90;;;;;;6300700;28;19989;-68
2021/07/16 09:25:14;;;;;;;;;;;17.80;99.90;;;;;;6317350;28;19924;-68
2021/07/16 09:28:23;;;;;;;;;;;17.80;99.90;;;;;;6320499;28;19928;-68
2021/07/16 09:31:27;;;;;;;;;;;17.80;99.90;;;;;;6318676;28;19924;-68
2021/07/16 09:34:29;;;;;;;;;;;17.80;99.90;;;;;;6316554;28;20018;-68
2021/07/16 09:37:30;;;;;;;;;;;17.80;99.90;;;;;;6320969;28;19924;-68
2021/07/16 09:40:33;;;;;;;;;;;17.80;99.90;;;;;;6321541;28;19924;-68
2021/07/16 09:43:35;;;;;;;;;;;17.90;99.90;;;;;;6318796;28;20014;-68
2021/07/16 09:46:37;;;;;;;;;;;17.90;99.90;;;;;;6319878;28;19932;-68
2021/07/16 09:49:39;;;;;;;;;;;17.90;99.90;;;;;;6320502;28;19935;-68
2021/07/16 09:52:41;;;;;;;;;;;17.90;99.90;;;;;;6318210;28;20672;-68
2021/07/16 09:55:43;;;;;;;;;;;18.00;99.90;;;;;;6321406;28;19931;-68
2021/07/16 09:58:46;;;;;;;;;;;18.00;99.90;;;;;;6308161;28;19936;-68
2021/07/16 10:01:48;;;;;;;;;;;18.00;99.90;;;;;;6318259;28;20244;-68
2021/07/16 10:04:50;;;;;;;;;;;18.00;99.90;;;;;;6317650;28;20485;-68
2021/07/16 10:07:52;;;;;;;;;;;18.10;99.90;;;;;;6316772;28;19943;-69
2021/07/16 10:10:54;;;;;;;;;;;18.10;99.90;;;;;;6317648;28;21778;-68
2021/07/16 10:13:56;;;;;;;;;;;18.20;99.90;;;;;;6298505;28;19936;-68
2021/07/16 10:16:58;;;;;;;;;;;18.20;99.90;;;;;;6316422;28;19925;-68
2021/07/16 10:20:00;;;;;;;;;;;18.30;99.90;;;;;;6298734;28;20390;-68
2021/07/16 10:23:03;;;;;;;;;;;18.40;99.90;;;;;;6317706;28;19932;-68
2021/07/16 10:26:07;;;;;;;;;;;18.40;99.90;;;;;;6314775;28;19923;-68
2021/07/16 10:29:37;;;;;;;;;;;18.40;99.90;;;;;;6299745;28;19932;-68
2021/07/16 10:32:40;;;;;;;;;;;18.50;99.90;;;;;;6315498;28;19931;-68
2021/07/16 10:35:41;;;;;;;;;;;18.50;99.90;;;;;;6314941;28;20295;-68
2021/07/16 10:38:49;;;;;;;;;;;18.50;99.90;;;;;;6317136;28;19924;-68
2021/07/16 10:41:51;;;;;;;;;;;18.60;99.90;;;;;;6317035;28;19931;-68
2021/07/16 10:45:04;;;;;;;;;;;18.70;99.90;;;;;;6314677;28;19932;-68
2021/07/16 10:48:12;;;;;;;;;;;18.70;99.90;;;;;;6294491;28;20476;-68
2021/07/16 10:51:21;;;;;;;;;;;18.70;99.90;;;;;;6317049;28;19928;-68
2021/07/16 10:54:30;;;;;;;;;;;18.70;99.90;;;;;;6314866;28;19928;-68
2021/07/16 10:57:42;;;;;;;;;;;18.70;99.90;;;;;;6314610;28;19932;-68
2021/07/16 11:00:43;;;;;;;;;;;18.80;99.90;;;;;;6314081;28;19931;-68
2021/07/16 11:03:46;;;;;;;;;;;18.90;99.90;;;;;;6315330;28;19938;-68
2021/07/16 11:06:54;;;;;;;;;;;18.90;99.90;;;;;;6313652;28;19947;-68
2021/07/16 11:09:56;;;;;;;;;;;19.00;99.90;;;;;;6317657;28;19924;-68
2021/07/16 11:13:19;;;;;;;;;;;19.00;99.90;;;;;;6315000;28;19939;-68
2021/07/16 11:16:27;;;;;;;;;;;19.00;99.90;;;;;;6312929;28;20398;-68
2021/07/16 11:19:29;;;;;;;;;;;19.00;99.90;;;;;;6299906;28;19931;-68
2021/07/16 11:22:30;;;;;;;;;;;19.00;99.90;;;;;;6318073;28;19956;-68
2021/07/16 11:25:33;;;;;;;;;;;19.10;99.90;;;;;;6316184;28;19939;-68
2021/07/16 11:28:36;;;;;;;;;;;19.20;99.90;;;;;;6296671;28;19924;-68
2021/07/16 11:31:37;;;;;;;;;;;19.30;99.90;;;;;;6295200;28;19925;-67
2021/07/16 11:34:46;;;;;;;;;;;19.40;99.90;;;;;;6310762;28;19928;-68
2021/07/16 11:37:49;;;;;;;;;;;19.40;99.90;;;;;;6315879;28;19924;-68
2021/07/16 11:40:50;;;;;;;;;;;19.50;99.90;;;;;;6317755;28;20276;-68
2021/07/16 11:43:52;;;;;;;;;;;19.60;99.90;;;;;;6315070;28;19928;-68
2021/07/16 11:46:56;;;;;;;;;;;19.70;99.90;;;;;;6313269;28;20283;-68
2021/07/16 11:49:59;;;;;;;;;;;19.70;99.90;;;;;;6315383;28;20024;-67
2021/07/16 11:53:00;;;;;;;;;;;19.70;99.90;;;;;;6314084;28;19924;-68
2021/07/16 11:56:12;;;;;;;;;;;19.70;99.90;;;;;;6312201;28;20390;-68
2021/07/16 11:59:20;;;;;;;;;;;19.80;99.90;;;;;;6316301;28;19935;-68
2021/07/16 12:02:23;;;;;;;;;;;19.80;99.90;;;;;;6314430;28;19928;-68
2021/07/16 12:05:25;;;;;;;;;;;19.90;99.90;;;;;;6318901;28;19924;-68
2021/07/16 12:08:28;;;;;;;;;;;19.90;99.90;;;;;;6314692;28;19932;-67
2021/07/16 12:11:30;;;;;;;;;;;20.00;99.90;;;;;;6318219;28;20535;-68
2021/07/16 12:14:49;;;;;;;;;;;20.10;99.90;;;;;;6316889;28;19970;-68
2021/07/16 12:17:59;;;;;;;;;;;20.10;99.90;;;;;;6313252;28;19936;-68
2021/07/16 12:21:05;;;;;;;;;;;20.10;99.90;;;;;;6313278;28;20387;-68
2021/07/16 12:24:07;;;;;;;;;;;20.20;99.90;;;;;;6313784;28;19931;-68
2021/07/16 12:27:10;;;;;;;;;;;20.40;99.90;;;;;;6314304;28;19928;-68
2021/07/16 12:30:13;;;;;;;;;;;20.50;99.90;;;;;;6314035;28;20351;-68
2021/07/16 12:33:15;;;;;;;;;;;20.60;99.90;;;;;;6314763;28;19935;-68
2021/07/16 12:36:24;;;;;;;;;;;20.60;99.90;;;;;;6300593;28;19946;-68
2021/07/16 12:39:26;;;;;;;;;;;20.70;99.90;;;;;;6315494;28;19927;-68
2021/07/16 12:42:27;;;;;;;;;;;20.80;99.90;;;;;;6315730;28;19939;-68
2021/07/16 12:45:38;;;;;;;;;;;20.80;99.90;;;;;;6314542;28;19932;-67
2021/07/16 12:48:42;;;;;;;;;;;20.90;99.90;;;;;;6319652;28;19939;-68
2021/07/16 12:51:46;;;;;;;;;;;20.90;99.90;;;;;;6319273;28;19932;-67
2021/07/16 12:55:08;;;;;;;;;;;20.80;99.90;;;;;;6300996;28;19928;-67
2021/07/16 12:58:10;;;;;;;;;;;20.80;99.90;;;;;;6318867;28;19935;-68
2021/07/16 13:01:12;;;;;;;;;;;20.90;99.90;;;;;;6315977;28;19939;-68
2021/07/16 13:04:16;;;;;;;;;;;20.90;99.90;;;;;;6314950;28;19936;-67
2021/07/16 13:07:24;;;;;;;;;;;20.90;99.90;;;;;;6314922;28;19951;-68
2021/07/16 13:10:26;;;;;;;;;;;20.90;99.90;;;;;;6317048;28;19976;-68
2021/07/16 13:13:32;;;;;;;;;;;20.90;99.90;;;;;;6300574;28;19939;-68
2021/07/16 13:16:34;;;;;;;;;;;20.90;99.90;;;;;;6319594;28;19968;-68
2021/07/16 13:19:36;;;;;;;;;;;21.00;99.90;;;;;;6320470;28;20077;-67
2021/07/16 13:22:41;;;;;;;;;;;21.00;99.90;;;;;;6301040;28;20367;-68
2021/07/16 13:25:43;;;;;;;;;;;21.10;99.90;;;;;;6322612;28;19931;-68
2021/07/16 13:28:45;;;;;;;;;;;21.10;99.90;;;;;;6302694;28;20329;-68
2021/07/16 13:31:47;;;;;;;;;;;21.20;99.90;;;;;;6321306;28;20007;-68
2021/07/16 13:34:49;;;;;;;;;;;21.20;99.90;;;;;;6299541;28;19963;-68
2021/07/16 13:37:50;;;;;;;;;;;21.20;99.90;;;;;;6322462;28;19931;-68
2021/07/16 13:40:52;;;;;;;;;;;21.20;99.90;;;;;;6321582;28;20278;-67
2021/07/16 13:43:53;;;;;;;;;;;21.20;99.90;;;;;;6320658;28;20289;-68
2021/07/16 13:46:55;;;;;;;;;;;21.20;99.90;;;;;;6317487;28;19932;-68
2021/07/16 13:49:57;;;;;;;;;;;21.20;99.90;;;;;;6322262;28;20246;-68
2021/07/16 13:52:58;;;;;;;;;;;21.20;99.90;;;;;;6304217;28;19923;-67
2021/07/16 13:56:01;;;;;;;;;;;21.20;99.90;;;;;;6320480;28;19924;-68
2021/07/16 13:59:03;;;;;;;;;;;21.20;99.90;;;;;;6298502;28;19928;-68
2021/07/16 14:02:04;;;;;;;;;;;21.30;99.90;;;;;;6317876;28;19932;-68
2021/07/16 14:05:09;;;;;;;;;;;21.30;99.90;;;;;;6314287;28;20675;-68
2021/07/16 14:08:10;;;;;;;;;;;21.30;99.90;;;;;;6316871;28;19947;-68
2021/07/16 14:11:13;;;;;;;;;;;21.40;99.90;;;;;;6318126;28;19935;-68
2021/07/16 14:14:15;;;;;;;;;;;21.40;99.90;;;;;;6319305;28;19924;-68
2021/07/16 14:17:17;;;;;;;;;;;21.40;99.90;;;;;;6316355;28;19928;-68
2021/07/16 14:20:19;;;;;;;;;;;21.40;99.90;;;;;;6317043;28;19969;-68
2021/07/16 14:23:21;;;;;;;;;;;21.40;99.90;;;;;;6318144;28;19931;-68
2021/07/16 14:26:23;;;;;;;;;;;21.50;99.90;;;;;;6318068;28;19992;-68
2021/07/16 14:29:25;;;;;;;;;;;21.50;99.90;;;;;;6299276;28;20327;-68
2021/07/16 14:32:27;;;;;;;;;;;21.60;99.90;;;;;;6315611;28;19923;-68
2021/07/16 14:35:29;;;;;;;;;;;21.70;99.90;;;;;;6301010;28;19931;-68
2021/07/16 14:38:31;;;;;;;;;;;21.70;99.90;;;;;;6300459;28;20377;-68
2021/07/16 14:41:32;;;;;;;;;;;21.80;99.90;;;;;;6302376;28;19932;-67
2021/07/16 14:44:34;;;;;;;;;;;21.80;99.90;;;;;;6310182;28;20379;-68
2021/07/16 14:47:36;;;;;;;;;;;21.90;99.90;;;;;;6316653;28;19977;-67
2021/07/16 14:50:37;;;;;;;;;;;21.90;99.90;;;;;;6316549;28;19931;-68
2021/07/16 14:53:39;;;;;;;;;;;21.90;99.90;;;;;;6316137;28;19935;-68
2021/07/16 14:56:41;;;;;;;;;;;21.90;99.90;;;;;;6314316;28;19939;-68
2021/07/16 14:59:44;;;;;;;;;;;21.90;99.90;;;;;;6316269;28;19924;-68
2021/07/16 15:02:45;;;;;;;;;;;22.00;99.90;;;;;;6317353;28;19976;-68
2021/07/16 15:05:47;;;;;;;;;;;22.00;99.90;;;;;;6315257;28;20379;-68
2021/07/16 15:08:49;;;;;;;;;;;22.10;99.90;;;;;;6318164;28;19931;-68
2021/07/16 15:11:50;;;;;;;;;;;22.10;99.90;;;;;;6289032;28;19932;-68
2021/07/16 15:14:52;;;;;;;;;;;22.20;99.90;;;;;;6290977;28;19924;-68
2021/07/16 15:17:54;;;;;;;;;;;22.30;99.90;;;;;;6289891;28;20021;-69
2021/07/16 15:20:55;;;;;;;;;;;22.40;99.90;;;;;;6288527;28;19981;-68
2021/07/16 15:23:57;;;;;;;;;;;22.30;99.90;;;;;;6285980;28;19935;-68
2021/07/16 15:26:59;;;;;;;;;;;22.30;99.90;;;;;;6288308;28;19968;-68
2021/07/16 15:30:00;;;;;;;;;;;22.20;99.90;;;;;;6292939;28;19928;-68
2021/07/16 15:33:02;;;;;;;;;;;22.20;99.90;;;;;;6287907;28;20371;-68
2021/07/16 15:36:04;;;;;;;;;;;22.20;99.90;;;;;;6286410;28;19928;-68
2021/07/16 15:39:06;;;;;;;;;;;22.20;99.90;;;;;;6287432;28;19928;-68
2021/07/16 15:42:08;;;;;;;;;;;22.30;99.90;;;;;;6287487;28;19951;-68
2021/07/16 15:45:10;;;;;;;;;;;22.40;99.90;;;;;;6286623;28;19932;-68
2021/07/16 15:48:11;;;;;;;;;;;22.40;99.90;;;;;;6288027;28;20148;-68
2021/07/16 15:51:13;;;;;;;;;;;22.50;99.90;;;;;;6287387;28;20136;-68
2021/07/16 15:54:15;;;;;;;;;;;22.60;99.90;;;;;;6285481;28;19928;-68
2021/07/16 15:57:16;;;;;;;;;;;22.70;99.90;;;;;;6285908;28;19928;-68
2021/07/16 16:00:18;;;;;;;;;;;22.70;99.90;;;;;;6287033;28;19947;-68
2021/07/16 16:03:20;;;;;;;;;;;22.80;99.90;;;;;;6288701;28;20285;-68
2021/07/16 16:06:22;;;;;;;;;;;22.90;99.90;;;;;;6290519;28;19929;-68
2021/07/16 16:09:24;;;;;;;;;;;23.00;99.90;;;;;;6287581;28;19925;-68
2021/07/16 16:12:25;;;;;;;;;;;22.90;99.90;;;;;;6313333;28;19932;-68
2021/07/16 16:15:27;;;;;;;;;;;22.90;99.90;;;;;;6296038;28;19935;-68
2021/07/16 16:18:29;;;;;;;;;;;22.90;99.90;;;;;;6311004;28;20471;-68
2021/07/16 16:21:33;;;;;;;;;;;22.90;99.90;;;;;;6302021;28;19931;-68
2021/07/16 16:24:35;;;;;;;;;;;22.90;99.90;;;;;;6299069;28;19928;-68
2021/07/16 16:27:37;;;;;;;;;;;22.80;99.90;;;;;;6296733;28;19924;-68
2021/07/16 16:30:38;;;;;;;;;;;22.90;99.90;;;;;;6320435;28;19928;-68
2021/07/16 16:33:40;;;;;;;;;;;22.90;99.90;;;;;;6321998;28;19934;-68
2021/07/16 16:36:42;;;;;;;;;;;23.00;99.90;;;;;;6318437;28;19931;-68
2021/07/16 16:39:43;;;;;;;;;;;23.10;99.90;;;;;;6321070;28;19928;-68
2021/07/16 16:42:48;;;;;;;;;;;23.20;99.90;;;;;;6318113;28;19935;-68
2021/07/16 16:45:50;;;;;;;;;;;23.30;99.90;;;;;;6317521;28;19932;-68
2021/07/16 16:48:52;;;;;;;;;;;23.30;99.90;;;;;;6317257;28;19954;-68
2021/07/16 16:51:53;;;;;;;;;;;23.30;99.90;;;;;;6318961;28;20272;-68
2021/07/16 16:54:56;;;;;;;;;;;23.30;99.90;;;;;;6317020;28;19924;-68
2021/07/16 16:57:57;;;;;;;;;;;23.40;99.90;;;;;;6319483;28;19924;-68
2021/07/16 17:01:00;;;;;;;;;;;23.40;99.90;;;;;;6318431;28;19928;-68
2021/07/16 17:04:02;;;;;;;;;;;23.30;99.90;;;;;;6310043;28;19931;-68
2021/07/16 17:07:04;;;;;;;;;;;23.00;99.90;;;;;;6313813;28;20018;-68
2021/07/16 17:10:06;;;;;;;;;;;22.80;99.90;;;;;;6297307;28;19959;-68
2021/07/16 17:13:08;;;;;;;;;;;22.60;99.90;;;;;;6315032;28;19928;-68
2021/07/16 17:16:12;;;;;;;;;;;22.50;99.90;;;;;;6310450;28;19982;-68
2021/07/16 17:19:16;;;;;;;;;;;22.30;99.90;;;;;;6314266;28;19928;-68
2021/07/16 17:22:17;;;;;;;;;;;22.20;99.90;;;;;;6317260;28;20355;-68
2021/07/16 17:25:21;;;;;;;;;;;22.10;99.90;;;;;;6316051;28;19927;-69
2021/07/16 17:28:23;;;;;;;;;;;22.00;99.90;;;;;;6313654;28;20005;-69
2021/07/16 17:31:25;;;;;;;;;;;21.90;99.90;;;;;;6314561;28;19924;-69
2021/07/16 17:34:26;;;;;;;;;;;21.80;99.90;;;;;;6312925;28;19955;-68
2021/07/16 17:37:34;;;;;;;;;;;21.80;99.90;;;;;;6297688;28;19934;-68
2021/07/16 17:40:36;;;;;;;;;;;21.70;99.90;;;;;;6314600;28;20390;-69
2021/07/16 17:43:38;;;;;;;;;;;21.70;99.90;;;;;;6318582;28;19931;-69